createdAt,value
2022-12-15T00:02:21.736Z,37.57
2022-12-15T00:05:07.987Z,45.50
2022-12-15T00:07:54.162Z,38.67
2022-12-15T00:10:40.033Z,33.30
2022-12-15T00:13:32.946Z,36.23
2022-12-15T00:16:18.982Z,43.37
2022-12-15T00:19:04.602Z,38.73
2022-12-15T00:21:50.456Z,35.03
2022-12-15T00:24:36.266Z,43.83
2022-12-15T00:27:22.127Z,43.80
2022-12-15T00:30:07.938Z,43.13
2022-12-15T00:32:53.710Z,35.53
2022-12-15T00:35:39.591Z,46.93
2022-12-15T00:38:31.127Z,54.60
2022-12-15T00:41:01.766Z,45.57
2022-12-15T00:43:33.034Z,61.10
2022-12-15T00:46:21.084Z,48.77
2022-12-15T00:48:48.549Z,47.43
2022-12-15T00:51:16.852Z,48.80
2022-12-15T00:54:03.523Z,53.40
2022-12-15T00:56:49.721Z,45.37
2022-12-15T00:59:36.630Z,51.97
2022-12-15T01:02:23.386Z,54.17
2022-12-15T01:05:09.091Z,48.00
2022-12-15T01:07:55.047Z,47.00
2022-12-15T01:10:40.926Z,51.93
2022-12-15T01:13:32.052Z,48.83
2022-12-15T01:16:18.178Z,38.83
2022-12-15T01:19:04.227Z,50.07
2022-12-15T01:21:32.631Z,52.47
2022-12-15T01:23:59.804Z,45.63
2022-12-15T01:26:27.118Z,48.37
2022-12-15T01:28:54.624Z,48.73
2022-12-15T01:31:21.934Z,52.77
2022-12-15T01:33:49.291Z,49.10
2022-12-15T01:36:16.771Z,43.83
2022-12-15T01:38:46.873Z,55.77
2022-12-15T01:41:16.856Z,49.67
2022-12-15T01:43:44.330Z,51.13
2022-12-15T01:46:14.962Z,40.40
2022-12-15T01:49:25.288Z,47.63
2022-12-15T01:51:57.144Z,41.97
2022-12-15T01:54:31.900Z,48.37
2022-12-15T01:57:07.778Z,40.43
2022-12-15T01:59:39.364Z,52.30
2022-12-15T02:02:07.243Z,45.50
2022-12-15T02:04:38.101Z,33.27
2022-12-15T02:07:05.447Z,37.77
2022-12-15T02:09:33.072Z,52.67
2022-12-15T02:12:29.364Z,53.33
2022-12-15T02:15:25.113Z,47.70
2022-12-15T02:18:10.645Z,44.67
2022-12-15T02:20:40.811Z,42.20
2022-12-15T02:23:36.461Z,47.13
2022-12-15T02:26:40.800Z,44.70
2022-12-15T02:30:00.824Z,47.35
2022-12-15T02:32:40.783Z,43.37
2022-12-15T02:35:15.885Z,46.13
2022-12-15T02:37:45.593Z,41.90
2022-12-15T02:40:17.860Z,28.43
2022-12-15T02:42:51.725Z,34.67
2022-12-15T02:45:41.359Z,44.77
2022-12-15T02:48:30.663Z,40.63
2022-12-15T02:51:34.802Z,35.23
2022-12-15T02:54:14.301Z,28.58
2022-12-15T02:57:04.285Z,34.43
2022-12-15T02:59:57.334Z,58.87
2022-12-15T03:02:28.651Z,40.53
2022-12-15T03:04:57.121Z,43.50
2022-12-15T03:07:28.359Z,27.57
2022-12-15T03:09:57.879Z,39.07
2022-12-15T03:12:25.381Z,40.40
2022-12-15T03:14:52.700Z,41.50
2022-12-15T03:17:20.519Z,38.17
2022-12-15T03:19:49.727Z,28.67
2022-12-15T03:22:17.364Z,45.40
2022-12-15T03:24:44.864Z,43.80
2022-12-15T03:27:12.403Z,40.33
2022-12-15T03:29:39.689Z,53.97
2022-12-15T03:32:07.576Z,38.23
2022-12-15T03:34:34.973Z,40.23
2022-12-15T03:37:02.268Z,36.97
2022-12-15T03:39:29.702Z,35.93
2022-12-15T03:41:56.925Z,28.47
2022-12-15T03:44:24.218Z,32.10
2022-12-15T03:46:52.205Z,48.27
2022-12-15T03:49:19.605Z,44.03
2022-12-15T03:51:46.925Z,37.20
2022-12-15T03:54:14.885Z,37.33
2022-12-15T03:56:42.226Z,36.60
2022-12-15T03:59:09.600Z,41.30
2022-12-15T04:01:37.842Z,37.33
2022-12-15T04:04:05.816Z,41.70
2022-12-15T04:06:33.131Z,54.93
2022-12-15T04:09:00.489Z,42.47
2022-12-15T04:11:27.841Z,42.23
2022-12-15T04:13:55.186Z,51.23
2022-12-15T04:16:22.460Z,45.50
2022-12-15T04:19:12.480Z,45.43
2022-12-15T04:21:39.784Z,68.93
2022-12-15T04:24:25.583Z,46.70
2022-12-15T04:27:11.522Z,44.90
2022-12-15T04:29:57.448Z,49.57
2022-12-15T04:32:43.282Z,73.47
2022-12-15T04:35:30.286Z,78.80
2022-12-15T04:38:16.039Z,39.33
2022-12-15T04:41:01.957Z,32.87
2022-12-15T04:43:48.239Z,39.37
2022-12-15T04:46:34.109Z,40.60
2022-12-15T04:49:19.876Z,32.93
2022-12-15T04:52:05.758Z,35.07
2022-12-15T04:54:51.662Z,92.47
2022-12-15T04:57:37.351Z,33.53
2022-12-15T05:00:23.932Z,37.03
2022-12-15T05:03:12.508Z,29.97
2022-12-15T05:06:02.010Z,40.27
2022-12-15T05:08:50.222Z,40.40
2022-12-15T05:11:36.426Z,35.07
2022-12-15T05:14:21.937Z,35.37
2022-12-15T05:17:07.724Z,45.60
2022-12-15T05:19:53.241Z,33.47
2022-12-15T05:22:39.091Z,42.33
2022-12-15T05:25:25.528Z,43.67
2022-12-15T05:28:11.316Z,45.17
2022-12-15T05:30:57.109Z,58.40
2022-12-15T05:33:24.655Z,57.87
2022-12-15T05:35:51.989Z,52.17
2022-12-15T05:38:19.271Z,37.20
2022-12-15T05:40:46.634Z,52.73
2022-12-15T05:43:13.870Z,44.60
2022-12-15T05:45:41.083Z,50.60
2022-12-15T05:48:08.492Z,53.93
2022-12-15T05:50:35.798Z,38.80
2022-12-15T05:53:03.202Z,47.13
2022-12-15T05:55:30.554Z,40.30
2022-12-15T05:57:57.852Z,55.47
2022-12-15T06:00:25.132Z,41.10
2022-12-15T06:02:52.502Z,53.43
2022-12-15T06:05:19.813Z,59.73
2022-12-15T06:07:47.178Z,60.33
2022-12-15T06:10:14.438Z,46.37
2022-12-15T06:12:41.709Z,42.20
2022-12-15T06:15:10.750Z,48.17
2022-12-15T06:17:38.130Z,42.90
2022-12-15T06:20:05.922Z,74.50
2022-12-15T06:22:33.220Z,61.33
2022-12-15T06:25:00.612Z,72.10
2022-12-15T06:27:27.881Z,58.03
2022-12-15T06:29:55.182Z,84.93
2022-12-15T06:32:22.578Z,67.83
2022-12-15T06:34:49.898Z,59.23
2022-12-15T06:37:17.118Z,77.10
2022-12-15T06:39:44.512Z,69.27
2022-12-15T06:42:11.889Z,105.03
2022-12-15T06:44:39.207Z,166.03
2022-12-15T06:47:07.734Z,63.63
2022-12-15T06:49:35.052Z,81.13
2022-12-15T06:52:02.427Z,29.13
2022-12-15T06:54:29.782Z,39.97
2022-12-15T06:56:57.040Z,60.83
2022-12-15T06:59:24.328Z,36.33
2022-12-15T07:01:51.871Z,110.93
2022-12-15T07:04:19.395Z,142.90
2022-12-15T07:06:46.690Z,49.63
2022-12-15T07:09:17.073Z,33.90
2022-12-15T07:11:45.459Z,49.57
2022-12-15T07:14:12.764Z,60.97
2022-12-15T07:16:41.618Z,68.33
2022-12-15T07:19:13.122Z,47.47
2022-12-15T07:21:41.424Z,42.70
2022-12-15T07:24:12.202Z,47.77
2022-12-15T07:26:40.600Z,43.10
2022-12-15T07:29:07.913Z,24.67
2022-12-15T07:31:35.267Z,57.67
2022-12-15T07:34:02.633Z,33.37
2022-12-15T07:36:29.990Z,38.30
2022-12-15T07:39:01.528Z,27.53
2022-12-15T07:41:30.300Z,32.63
2022-12-15T07:43:58.818Z,41.17
2022-12-15T07:46:26.721Z,38.80
2022-12-15T07:48:54.034Z,34.63
2022-12-15T07:51:22.503Z,40.03
2022-12-15T07:53:52.928Z,45.83
2022-12-15T07:56:20.775Z,39.00
2022-12-15T07:58:48.264Z,32.33
2022-12-15T08:01:16.175Z,30.50
2022-12-15T08:03:43.843Z,24.43
2022-12-15T08:06:15.278Z,38.07
2022-12-15T08:08:50.351Z,43.40
2022-12-15T08:11:20.244Z,27.97
2022-12-15T08:14:05.031Z,31.63
2022-12-15T08:16:36.913Z,58.17
2022-12-15T08:19:07.170Z,34.40
2022-12-15T08:21:34.982Z,62.13
2022-12-15T08:24:02.558Z,30.70
2022-12-15T08:26:31.437Z,42.97
2022-12-15T08:29:31.742Z,28.80
2022-12-15T08:31:51.728Z,32.53
2022-12-15T08:34:19.304Z,39.23
2022-12-15T08:36:46.621Z,31.80
2022-12-15T08:39:14.134Z,65.17
2022-12-15T08:41:42.051Z,39.73
2022-12-15T08:44:09.345Z,43.87
2022-12-15T08:46:36.966Z,33.97
2022-12-15T08:49:05.059Z,63.07
2022-12-15T08:51:33.639Z,31.97
2022-12-15T08:54:01.914Z,59.73
2022-12-15T08:56:29.740Z,44.40
2022-12-15T08:59:02.229Z,30.40
2022-12-15T09:01:32.690Z,33.40
2022-12-15T09:04:01.625Z,24.60
2022-12-15T09:06:32.300Z,39.33
2022-12-15T09:09:01.854Z,44.73
2022-12-15T09:11:30.253Z,35.73
2022-12-15T09:13:58.499Z,47.60
2022-12-15T09:16:26.833Z,43.00
2022-12-15T09:18:56.405Z,52.90
2022-12-15T09:21:26.520Z,82.60
2022-12-15T09:23:56.235Z,50.97
2022-12-15T09:26:24.127Z,40.27
2022-12-15T09:28:52.179Z,31.80
2022-12-15T09:31:29.127Z,43.27
2022-12-15T09:33:58.350Z,48.70
2022-12-15T09:36:26.208Z,57.03
2022-12-15T09:38:53.490Z,33.13
2022-12-15T09:41:28.320Z,42.40
2022-12-15T09:44:13.299Z,52.93
2022-12-15T09:47:19.196Z,44.10
2022-12-15T09:49:57.837Z,38.03
2022-12-15T09:52:42.876Z,37.43
2022-12-15T09:55:31.718Z,47.27
2022-12-15T09:58:11.138Z,31.80
2022-12-15T10:00:56.931Z,43.45
2022-12-15T10:06:21.574Z,34.42
2022-12-15T10:09:00.302Z,42.88
2022-12-15T10:12:02.233Z,39.33
2022-12-15T10:14:41.427Z,33.05
2022-12-15T10:17:17.481Z,42.63
2022-12-15T10:20:06.753Z,24.52
2022-12-15T10:22:37.793Z,23.05
2022-12-15T10:25:30.872Z,24.48
2022-12-15T10:28:25.299Z,26.92
2022-12-15T10:31:00.637Z,26.73
2022-12-15T10:33:37.041Z,28.08
2022-12-15T10:36:12.801Z,28.90
2022-12-15T10:38:43.876Z,29.05
2022-12-15T10:41:17.955Z,30.40
2022-12-15T10:43:48.199Z,29.13
2022-12-15T10:46:24.799Z,33.03
2022-12-15T10:49:08.673Z,27.60
2022-12-15T10:51:58.455Z,21.67
2022-12-15T10:54:32.115Z,28.35
2022-12-15T10:57:03.449Z,23.40
2022-12-15T10:59:38.865Z,24.15
2022-12-15T11:02:24.380Z,23.88
2022-12-15T11:05:00.705Z,24.90
2022-12-15T11:07:52.825Z,24.67
2022-12-15T11:10:50.083Z,27.35
2022-12-15T11:13:20.455Z,24.17
2022-12-15T11:15:55.237Z,22.27
2022-12-15T11:18:51.172Z,23.63
2022-12-15T11:21:30.688Z,19.80
2022-12-15T11:24:13.010Z,20.48
2022-12-15T11:26:49.256Z,21.75
2022-12-15T11:29:30.310Z,21.67
2022-12-15T11:32:01.537Z,18.73
2022-12-15T11:34:39.399Z,20.85
2022-12-15T11:37:34.300Z,21.50
2022-12-15T11:40:31.581Z,21.38
2022-12-15T11:43:37.628Z,23.80
2022-12-15T11:46:21.518Z,23.70
2022-12-15T11:49:17.140Z,27.50
2022-12-15T11:52:19.198Z,23.95
2022-12-15T11:54:55.875Z,30.40
2022-12-15T11:57:52.387Z,22.88
2022-12-15T12:00:21.841Z,25.15
2022-12-15T12:03:10.355Z,24.23
2022-12-15T12:05:47.562Z,24.40
2022-12-15T12:08:38.533Z,23.52
2022-12-15T12:11:11.275Z,24.35
2022-12-15T12:13:51.158Z,21.45
2022-12-15T12:16:36.492Z,25.83
2022-12-15T12:19:11.548Z,21.65
2022-12-15T12:21:50.770Z,24.65
2022-12-15T12:24:25.094Z,24.98
2022-12-15T12:26:55.401Z,28.67
2022-12-15T12:29:29.051Z,29.00
2022-12-15T12:32:23.211Z,29.85
2022-12-15T12:35:30.723Z,25.73
2022-12-15T12:38:05.455Z,25.55
2022-12-15T12:40:41.801Z,24.33
2022-12-15T12:43:14.089Z,27.05
2022-12-15T12:45:59.537Z,45.55
2022-12-15T12:48:38.120Z,24.58
2022-12-15T12:51:37.543Z,25.15
2022-12-15T12:54:36.907Z,27.10
2022-12-15T12:57:33.123Z,26.33
2022-12-15T13:00:12.974Z,22.52
2022-12-15T13:03:02.362Z,26.40
2022-12-15T13:05:31.600Z,31.05
2022-12-15T13:08:08.164Z,35.00
2022-12-15T13:10:41.128Z,41.20
2022-12-15T13:13:30.061Z,38.25
2022-12-15T13:16:13.244Z,40.20
2022-12-15T13:19:03.746Z,37.37
2022-12-15T13:21:48.507Z,38.30
2022-12-15T13:24:41.599Z,34.40
2022-12-15T13:27:14.467Z,40.97
2022-12-15T13:30:16.233Z,35.65
2022-12-15T13:32:51.592Z,32.67
2022-12-15T13:35:31.702Z,46.60
2022-12-15T13:38:04.115Z,74.93
2022-12-15T13:40:37.280Z,31.93
2022-12-15T13:43:04.565Z,62.88
2022-12-15T13:45:37.992Z,44.37
2022-12-15T13:48:19.494Z,78.00
2022-12-15T13:51:18.708Z,55.07
2022-12-15T13:54:00.962Z,56.80
2022-12-15T13:57:05.909Z,48.37
2022-12-15T13:59:45.773Z,50.73
2022-12-15T14:02:29.587Z,51.47
2022-12-15T14:05:17.662Z,66.35
2022-12-15T14:07:56.636Z,58.60
2022-12-15T14:10:45.178Z,57.67
2022-12-15T14:13:25.967Z,62.67
2022-12-15T14:15:59.994Z,51.87
2022-12-15T14:18:31.592Z,48.70
2022-12-15T14:21:00.585Z,43.57
2022-12-15T14:24:10.974Z,42.33
2022-12-15T14:26:32.087Z,40.43
2022-12-15T14:29:07.291Z,33.13
2022-12-15T14:31:38.440Z,33.80
2022-12-15T14:34:15.729Z,43.20
2022-12-15T14:36:44.594Z,41.37
2022-12-15T14:39:28.669Z,37.47
2022-12-15T14:41:57.794Z,40.40
2022-12-15T14:44:43.931Z,35.73
2022-12-15T14:47:24.925Z,37.87
2022-12-15T14:49:53.386Z,56.03
2022-12-15T14:52:34.520Z,50.60
2022-12-15T14:55:05.331Z,35.87
2022-12-15T14:57:43.753Z,44.37
2022-12-15T15:00:24.861Z,39.93
2022-12-15T15:03:18.502Z,52.57
2022-12-15T15:05:54.478Z,44.03
2022-12-15T15:08:31.553Z,40.10
2022-12-15T15:11:03.275Z,42.37
2022-12-15T15:13:40.049Z,56.87
2022-12-15T15:16:15.102Z,61.03
2022-12-15T15:18:44.055Z,83.47
2022-12-15T15:21:18.692Z,66.33
2022-12-15T15:24:23.547Z,67.47
2022-12-15T15:26:51.184Z,158.13
2022-12-15T15:29:41.243Z,102.57
2022-12-15T15:32:20.516Z,48.67
2022-12-15T15:34:48.611Z,38.47
2022-12-15T15:37:24.642Z,48.10
2022-12-15T15:39:56.269Z,42.83
2022-12-15T15:42:29.138Z,68.53
2022-12-15T15:44:59.752Z,42.70
2022-12-15T15:47:27.710Z,44.93
2022-12-15T15:50:00.216Z,46.07
2022-12-15T15:52:30.164Z,59.20
2022-12-15T15:54:58.334Z,42.00
2022-12-15T15:57:25.605Z,50.23
2022-12-15T15:59:53.490Z,43.07
2022-12-15T16:02:21.295Z,45.83
2022-12-15T16:04:48.783Z,40.80
2022-12-15T16:07:26.103Z,52.57
2022-12-15T16:09:54.161Z,51.67
2022-12-15T16:12:43.209Z,45.73
2022-12-15T16:15:15.101Z,49.97
2022-12-15T16:17:43.426Z,40.77
2022-12-15T16:20:14.136Z,55.53
2022-12-15T16:22:44.675Z,49.33
2022-12-15T16:25:21.853Z,38.33
2022-12-15T16:27:49.225Z,38.30
2022-12-15T16:30:23.021Z,44.07
2022-12-15T16:32:54.219Z,37.07
2022-12-15T16:35:26.460Z,41.20
2022-12-15T16:37:53.891Z,37.27
2022-12-15T16:40:26.980Z,48.47
2022-12-15T16:42:58.073Z,33.20
2022-12-15T16:45:27.786Z,45.47
2022-12-15T16:47:56.003Z,51.67
2022-12-15T16:50:35.252Z,49.47
2022-12-15T16:53:04.767Z,41.03
2022-12-15T16:55:38.197Z,41.37
2022-12-15T16:58:07.676Z,44.80
2022-12-15T17:00:36.030Z,42.70
2022-12-15T17:03:04.939Z,40.67
2022-12-15T17:05:34.178Z,37.67
2022-12-15T17:08:04.729Z,44.17
2022-12-15T17:10:32.830Z,42.60
2022-12-15T17:13:20.151Z,34.97
2022-12-15T17:15:47.541Z,45.47
2022-12-15T17:18:15.386Z,42.83
2022-12-15T17:20:43.220Z,41.30
2022-12-15T17:23:31.261Z,43.00
2022-12-15T17:26:22.679Z,47.40
2022-12-15T17:28:46.342Z,44.10
2022-12-15T17:31:25.973Z,41.60
2022-12-15T17:33:55.070Z,43.20
2022-12-15T17:36:28.336Z,44.23
2022-12-15T17:39:01.206Z,42.60
2022-12-15T17:41:58.033Z,44.45
2022-12-15T17:44:34.098Z,39.70
2022-12-15T17:47:04.247Z,40.90
2022-12-15T17:49:35.428Z,41.77
2022-12-15T17:52:18.907Z,46.90
2022-12-15T17:54:46.415Z,45.73
2022-12-15T17:57:13.792Z,53.83
2022-12-15T17:59:41.504Z,54.77
2022-12-15T18:02:14.079Z,56.40
2022-12-15T18:04:42.601Z,61.47
2022-12-15T18:07:30.034Z,56.23
2022-12-15T18:09:57.498Z,47.23
2022-12-15T18:12:26.658Z,57.97
2022-12-15T18:14:55.088Z,44.40
2022-12-15T18:17:23.100Z,45.70
2022-12-15T18:19:50.485Z,48.83
2022-12-15T18:22:23.985Z,47.70
2022-12-15T18:24:53.757Z,38.17
2022-12-15T18:27:29.170Z,50.40
2022-12-15T18:29:57.238Z,46.20
2022-12-15T18:32:27.270Z,47.30
2022-12-15T18:34:55.454Z,46.87
2022-12-15T18:37:25.375Z,51.83
2022-12-15T18:39:53.291Z,38.40
2022-12-15T18:42:23.255Z,47.40
2022-12-15T18:44:53.006Z,45.43
2022-12-15T18:47:23.001Z,41.50
2022-12-15T18:49:50.639Z,47.13
2022-12-15T18:52:23.607Z,53.30
2022-12-15T18:54:53.525Z,61.88
2022-12-15T18:57:29.680Z,56.53
2022-12-15T19:00:08.334Z,53.40
2022-12-15T19:02:35.873Z,46.27
2022-12-15T19:05:03.817Z,65.73
2022-12-15T19:07:31.669Z,56.23
2022-12-15T19:09:59.245Z,51.97
2022-12-15T19:12:26.894Z,47.40
2022-12-15T19:14:55.035Z,49.37
2022-12-15T19:17:43.190Z,44.10
2022-12-15T19:20:39.495Z,49.87
2022-12-15T19:23:07.684Z,48.33
2022-12-15T19:25:35.840Z,46.30
2022-12-15T19:28:03.413Z,49.87
2022-12-15T19:30:40.302Z,56.00
2022-12-15T19:33:10.500Z,51.20
2022-12-15T19:35:39.794Z,50.27
2022-12-15T19:38:08.179Z,49.37
2022-12-15T19:40:37.987Z,56.33
2022-12-15T19:43:05.737Z,59.80
2022-12-15T19:45:33.761Z,91.57
2022-12-15T19:48:01.571Z,59.97
2022-12-15T19:50:36.925Z,69.33
2022-12-15T19:53:13.152Z,54.13
2022-12-15T19:55:40.966Z,83.77
2022-12-15T19:58:32.925Z,54.60
2022-12-15T20:01:04.561Z,44.27
2022-12-15T20:03:33.154Z,53.27
2022-12-15T20:06:02.312Z,54.83
2022-12-15T20:08:35.498Z,53.67
2022-12-15T20:11:03.966Z,51.13
2022-12-15T20:13:31.807Z,55.03
2022-12-15T20:15:59.485Z,58.67
2022-12-15T20:18:26.915Z,62.97
2022-12-15T20:20:54.393Z,47.87
2022-12-15T20:23:26.518Z,44.80
2022-12-15T20:25:56.233Z,60.53
2022-12-15T20:28:26.669Z,50.57
2022-12-15T20:30:55.038Z,54.00
2022-12-15T20:33:22.731Z,46.67
2022-12-15T20:35:50.659Z,53.93
2022-12-15T20:38:24.226Z,56.53
2022-12-15T20:40:52.807Z,50.80
2022-12-15T20:43:21.850Z,62.23
2022-12-15T20:45:58.388Z,47.37
2022-12-15T20:48:26.057Z,65.30
2022-12-15T20:50:53.646Z,55.60
2022-12-15T20:53:25.375Z,68.47
2022-12-15T20:55:54.566Z,64.07
2022-12-15T20:58:22.591Z,57.87
2022-12-15T21:00:51.168Z,54.47
2022-12-15T21:03:31.440Z,70.13
2022-12-15T21:05:59.847Z,70.90
2022-12-15T21:08:30.058Z,65.13
2022-12-15T21:11:07.621Z,61.93
2022-12-15T21:13:35.778Z,64.30
2022-12-15T21:16:03.386Z,57.67
2022-12-15T21:21:33.273Z,65.73
2022-12-15T21:24:02.466Z,49.97
2022-12-15T21:26:29.806Z,52.77
2022-12-15T21:29:02.913Z,65.93
2022-12-15T21:31:30.247Z,43.50
2022-12-15T21:33:57.699Z,56.17
2022-12-15T21:36:25.219Z,63.07
2022-12-15T21:38:53.066Z,55.60
2022-12-15T21:41:23.731Z,58.93
2022-12-15T21:43:51.155Z,67.53
2022-12-15T21:46:28.666Z,53.70
2022-12-15T21:49:15.407Z,68.53
2022-12-15T21:51:45.653Z,60.30
2022-12-15T21:54:19.142Z,53.10
2022-12-15T21:56:48.666Z,61.80
2022-12-15T21:59:19.717Z,58.90
2022-12-15T22:01:48.036Z,65.73
2022-12-15T22:04:29.823Z,73.03
2022-12-15T22:06:57.279Z,67.23
2022-12-15T22:09:24.673Z,68.47
2022-12-15T22:11:54.470Z,75.50
2022-12-15T22:14:32.338Z,72.80
2022-12-15T22:17:13.078Z,62.20
2022-12-15T22:19:40.447Z,62.83
2022-12-15T22:22:07.856Z,55.27
2022-12-15T22:24:35.448Z,71.13
2022-12-15T22:27:02.943Z,62.40
2022-12-15T22:29:31.925Z,50.27
2022-12-15T22:31:59.373Z,72.50
2022-12-15T22:34:28.020Z,51.43
2022-12-15T22:36:55.383Z,69.57
2022-12-15T22:39:22.727Z,62.60
2022-12-15T22:41:52.283Z,60.40
2022-12-15T22:44:28.197Z,59.47
2022-12-15T22:46:58.488Z,61.03
2022-12-15T22:49:31.548Z,61.07
2022-12-15T22:51:58.837Z,71.55
2022-12-15T22:54:29.383Z,56.60
2022-12-15T22:57:05.608Z,61.17
2022-12-15T22:59:43.750Z,58.03
2022-12-15T23:02:11.761Z,52.87
2022-12-15T23:04:39.306Z,54.23
2022-12-15T23:07:10.372Z,66.67
2022-12-15T23:09:39.108Z,62.03
2022-12-15T23:12:06.657Z,57.37
2022-12-15T23:14:52.645Z,58.53
2022-12-15T23:17:20.680Z,58.50
2022-12-15T23:19:48.285Z,64.07
2022-12-15T23:22:15.629Z,59.20
2022-12-15T23:24:42.964Z,66.03
2022-12-15T23:27:11.710Z,58.43
2022-12-15T23:29:39.053Z,53.83
2022-12-15T23:32:06.575Z,60.10
2022-12-15T23:34:33.895Z,74.33
2022-12-15T23:37:01.176Z,65.03
2022-12-15T23:39:28.567Z,62.47
2022-12-15T23:41:55.844Z,63.20
2022-12-15T23:44:23.383Z,62.67
2022-12-15T23:46:50.762Z,66.27
2022-12-15T23:49:18.024Z,60.17
2022-12-15T23:51:45.404Z,72.70
2022-12-15T23:54:12.725Z,65.50
2022-12-15T23:56:40.842Z,70.57
2022-12-15T23:59:08.260Z,75.50
